createdAt,value
2022-11-05T00:00:07.223Z,99644.06
2022-11-05T00:02:52.200Z,99638.56
2022-11-05T00:05:44.090Z,99641.00
2022-11-05T00:08:29.472Z,99640.22
2022-11-05T00:10:57.305Z,99643.09
2022-11-05T00:13:42.540Z,99654.88
2022-11-05T00:16:36.235Z,99650.00
2022-11-05T00:19:10.107Z,99644.84
2022-11-05T00:21:57.347Z,99647.19
2022-11-05T00:24:43.174Z,99648.91
2022-11-05T00:27:10.906Z,99648.44
2022-11-05T00:29:38.574Z,99650.00
2022-11-05T00:32:06.146Z,99653.91
2022-11-05T00:34:33.586Z,99658.25
2022-11-05T00:37:02.441Z,99662.88
2022-11-05T00:39:29.880Z,99655.78
2022-11-05T00:42:11.295Z,99660.66
2022-11-05T00:44:56.284Z,99669.06
2022-11-05T00:47:41.231Z,99673.59
2022-11-05T00:50:10.552Z,99674.16
2022-11-05T00:52:58.017Z,99677.91
2022-11-05T00:55:28.103Z,99675.88
2022-11-05T00:57:56.189Z,99672.94
2022-11-05T01:00:24.323Z,99687.94
2022-11-05T01:02:51.827Z,99686.97
2022-11-05T01:05:19.715Z,99681.50
2022-11-05T01:07:48.494Z,99682.69
2022-11-05T01:10:16.048Z,99689.81
2022-11-05T01:12:43.481Z,99690.22
2022-11-05T01:15:11.194Z,99685.97
2022-11-05T01:17:38.633Z,99697.03
2022-11-05T01:20:06.959Z,99688.19
2022-11-05T01:22:34.390Z,99685.53
2022-11-05T01:25:03.266Z,99689.28
2022-11-05T01:27:30.787Z,99689.06
2022-11-05T01:29:58.244Z,99699.00
2022-11-05T01:32:25.687Z,99703.00
2022-11-05T01:34:53.134Z,99700.19
2022-11-05T01:37:20.578Z,99710.69
2022-11-05T01:39:48.136Z,99714.91
2022-11-05T01:42:21.916Z,99725.41
2022-11-05T01:44:58.692Z,99724.63
2022-11-05T01:47:42.387Z,99728.22
2022-11-05T01:50:23.359Z,99729.16
2022-11-05T01:52:55.019Z,99727.69
2022-11-05T01:55:27.300Z,99726.56
2022-11-05T01:57:59.765Z,99721.16
2022-11-05T02:00:27.888Z,99725.56
2022-11-05T02:02:55.432Z,99715.59
2022-11-05T02:05:23.548Z,99735.75
2022-11-05T02:07:52.164Z,99734.25
2022-11-05T02:10:20.029Z,99736.44
2022-11-05T02:12:48.999Z,99733.22
2022-11-05T02:15:25.902Z,99735.38
2022-11-05T02:18:00.419Z,99733.84
2022-11-05T02:20:40.502Z,99742.63
2022-11-05T02:23:44.374Z,99745.94
2022-11-05T02:26:34.061Z,99747.97
2022-11-05T02:29:48.171Z,99764.97
2022-11-05T02:32:26.495Z,99757.59
2022-11-05T02:35:05.634Z,99758.44
2022-11-05T02:37:40.048Z,99747.88
2022-11-05T02:40:18.993Z,99767.00
2022-11-05T02:42:56.874Z,99766.81
2022-11-05T02:45:35.254Z,99769.16
2022-11-05T02:48:12.231Z,99765.25
2022-11-05T02:50:48.717Z,99772.31
2022-11-05T02:53:20.841Z,99771.31
2022-11-05T02:55:53.857Z,99776.31
2022-11-05T02:58:21.276Z,99766.00
2022-11-05T03:00:52.001Z,99764.41
2022-11-05T03:03:25.670Z,99774.84
2022-11-05T03:06:23.570Z,99766.38
2022-11-05T03:09:32.251Z,99766.31
2022-11-05T03:12:12.827Z,99766.09
2022-11-05T03:14:46.255Z,99759.63
2022-11-05T03:17:25.408Z,99760.56
2022-11-05T03:20:02.560Z,99757.97
2022-11-05T03:22:35.495Z,99770.34
2022-11-05T03:25:07.678Z,99770.63
2022-11-05T03:27:39.981Z,99769.41
2022-11-05T03:30:10.248Z,99763.38
2022-11-05T03:32:41.494Z,99760.78
2022-11-05T03:35:15.549Z,99767.00
2022-11-05T03:37:45.993Z,99764.78
2022-11-05T03:40:17.093Z,99769.56
2022-11-05T03:42:49.585Z,99769.41
2022-11-05T03:45:20.999Z,99776.75
2022-11-05T03:47:51.356Z,99776.94
2022-11-05T03:50:24.762Z,99780.31
2022-11-05T03:52:54.465Z,99768.56
2022-11-05T03:55:25.547Z,99784.25
2022-11-05T03:57:56.567Z,99782.88
2022-11-05T04:00:24.379Z,99784.47
2022-11-05T04:02:52.091Z,99792.44
2022-11-05T04:05:20.984Z,99791.09
2022-11-05T04:08:11.363Z,99796.50
2022-11-05T04:10:58.971Z,99794.78
2022-11-05T04:13:26.644Z,99801.09
2022-11-05T04:16:24.266Z,99805.94
2022-11-05T04:18:51.773Z,99806.38
2022-11-05T04:21:38.174Z,99804.56
2022-11-05T04:24:09.112Z,99807.16
2022-11-05T04:26:37.576Z,99805.28
2022-11-05T04:29:22.888Z,99803.13
2022-11-05T04:31:50.889Z,99804.53
2022-11-05T04:34:18.834Z,99810.34
2022-11-05T04:36:49.607Z,99808.97
2022-11-05T04:39:17.873Z,99805.09
2022-11-05T04:41:47.836Z,99805.84
2022-11-05T04:44:15.516Z,99806.75
2022-11-05T04:46:43.065Z,99795.59
2022-11-05T04:49:10.536Z,99808.91
2022-11-05T04:51:38.017Z,99800.63
2022-11-05T04:54:06.869Z,99808.53
2022-11-05T04:56:34.567Z,99813.28
2022-11-05T04:59:02.052Z,99815.88
2022-11-05T05:01:29.600Z,99808.34
2022-11-05T05:03:57.143Z,99810.56
2022-11-05T05:06:24.700Z,99813.09
2022-11-05T05:08:52.788Z,99814.88
2022-11-05T05:11:24.562Z,99812.66
2022-11-05T05:13:52.190Z,99816.22
2022-11-05T05:16:22.026Z,99822.75
2022-11-05T05:18:49.852Z,99824.88
2022-11-05T05:21:37.282Z,99828.78
2022-11-05T05:24:05.682Z,99822.44
2022-11-05T05:26:34.469Z,99819.84
2022-11-05T05:29:01.952Z,99828.50
2022-11-05T05:31:29.394Z,99830.19
2022-11-05T05:33:56.950Z,99827.44
2022-11-05T05:36:24.882Z,99828.50
2022-11-05T05:38:52.380Z,99832.13
2022-11-05T05:41:19.848Z,99837.03
2022-11-05T05:43:48.663Z,99836.22
2022-11-05T05:46:18.479Z,99842.72
2022-11-05T05:48:53.801Z,99837.66
2022-11-05T05:51:21.122Z,99841.25
2022-11-05T05:53:48.626Z,99850.25
2022-11-05T05:56:19.154Z,99836.59
2022-11-05T05:58:48.307Z,99852.75
2022-11-05T06:01:19.556Z,99848.91
2022-11-05T06:03:48.125Z,99852.59
2022-11-05T06:06:19.476Z,99850.31
2022-11-05T06:08:46.953Z,99860.38
2022-11-05T06:11:14.600Z,99864.84
2022-11-05T06:13:42.087Z,99869.44
2022-11-05T06:16:11.869Z,99872.09
2022-11-05T06:18:42.599Z,99869.16
2022-11-05T06:21:12.555Z,99883.13
2022-11-05T06:23:41.323Z,99884.50
2022-11-05T06:26:12.444Z,99880.16
2022-11-05T06:28:40.000Z,99890.06
2022-11-05T06:31:07.483Z,99886.63
2022-11-05T06:33:36.289Z,99888.72
2022-11-05T06:36:07.467Z,99892.03
2022-11-05T06:38:39.271Z,99892.25
2022-11-05T06:41:10.251Z,99896.50
2022-11-05T06:43:41.107Z,99898.84
2022-11-05T06:46:08.832Z,99888.28
2022-11-05T06:48:40.201Z,99898.03
2022-11-05T06:51:11.605Z,99898.91
2022-11-05T06:53:39.086Z,99904.34
2022-11-05T06:56:10.039Z,99910.88
2022-11-05T06:58:37.788Z,99911.31
2022-11-05T07:01:09.297Z,99914.69
2022-11-05T07:03:39.074Z,99918.38
2022-11-05T07:06:08.073Z,99915.72
2022-11-05T07:08:36.779Z,99927.03
2022-11-05T07:11:04.940Z,99930.25
2022-11-05T07:13:32.432Z,99931.47
2022-11-05T07:15:59.906Z,99932.78
2022-11-05T07:18:27.365Z,99940.53
2022-11-05T07:20:56.160Z,99938.16
2022-11-05T07:23:23.655Z,99940.56
2022-11-05T07:25:51.157Z,99942.97
2022-11-05T07:28:18.630Z,99940.19
2022-11-05T07:30:46.287Z,99934.69
2022-11-05T07:33:14.253Z,99938.13
2022-11-05T07:35:41.961Z,99943.69
2022-11-05T07:38:11.712Z,99947.28
2022-11-05T07:40:39.275Z,99950.50
2022-11-05T07:43:06.713Z,99947.75
2022-11-05T07:45:34.199Z,99951.66
2022-11-05T07:48:03.439Z,99955.41
2022-11-05T07:50:33.550Z,99963.38
2022-11-05T07:53:01.991Z,99960.91
2022-11-05T07:55:31.282Z,99952.13
2022-11-05T07:57:58.939Z,99964.97
2022-11-05T08:00:28.058Z,99965.47
2022-11-05T08:03:09.301Z,99968.59
2022-11-05T08:05:38.910Z,99968.78
2022-11-05T08:08:07.998Z,99968.25
2022-11-05T08:10:37.374Z,99977.34
2022-11-05T08:13:06.005Z,99969.56
2022-11-05T08:15:34.260Z,99969.09
2022-11-05T08:18:03.138Z,99976.47
2022-11-05T08:20:31.507Z,99969.69
2022-11-05T08:22:59.168Z,99977.75
2022-11-05T08:25:27.348Z,99975.88
2022-11-05T08:28:01.074Z,99973.81
2022-11-05T08:30:29.643Z,99982.81
2022-11-05T08:32:58.456Z,99975.16
2022-11-05T08:35:26.433Z,99976.69
2022-11-05T08:37:57.314Z,99975.34
2022-11-05T08:40:24.922Z,99977.06
2022-11-05T08:42:52.553Z,99990.28
2022-11-05T08:45:21.370Z,99988.16
2022-11-05T08:47:48.991Z,99993.13
2022-11-05T08:50:16.419Z,99997.31
2022-11-05T08:52:43.854Z,99993.72
2022-11-05T08:55:11.340Z,100000.94
2022-11-05T08:57:38.818Z,100004.03
2022-11-05T09:00:07.480Z,99995.81
2022-11-05T09:02:36.323Z,100004.13
2022-11-05T09:05:04.116Z,99998.84
2022-11-05T09:07:31.767Z,99994.50
2022-11-05T09:09:59.309Z,100003.34
2022-11-05T09:12:26.775Z,100007.41
2022-11-05T09:14:54.214Z,99998.28
2022-11-05T09:17:22.918Z,100004.50
2022-11-05T09:19:51.789Z,100001.75
2022-11-05T09:22:19.758Z,99996.94
2022-11-05T09:24:47.230Z,100000.97
2022-11-05T09:27:16.812Z,99995.50
2022-11-05T09:29:44.250Z,100005.28
2022-11-05T09:32:11.981Z,100006.00
2022-11-05T09:34:39.633Z,100008.88
2022-11-05T09:37:08.417Z,100014.72
2022-11-05T09:39:35.837Z,100016.56
2022-11-05T09:42:07.859Z,100014.53
2022-11-05T09:44:41.760Z,100014.88
2022-11-05T09:47:15.703Z,100012.78
2022-11-05T09:49:50.206Z,100023.16
2022-11-05T09:52:23.572Z,100025.00
2022-11-05T09:54:51.436Z,100020.88
2022-11-05T09:57:28.430Z,100023.94
2022-11-05T09:59:59.984Z,100019.69
2022-11-05T10:02:33.705Z,100023.72
2022-11-05T10:05:09.628Z,100014.34
2022-11-05T10:07:46.096Z,100022.03
2022-11-05T10:10:30.562Z,100021.09
2022-11-05T10:13:01.780Z,100017.25
2022-11-05T10:15:34.011Z,100022.19
2022-11-05T10:18:07.014Z,100026.88
2022-11-05T10:20:36.530Z,100027.28
2022-11-05T10:23:13.002Z,100020.13
2022-11-05T10:25:44.204Z,100023.34
2022-11-05T10:28:17.279Z,100023.50
2022-11-05T10:30:46.164Z,100026.88
2022-11-05T10:33:20.585Z,100027.50
2022-11-05T10:35:51.024Z,100024.13
2022-11-05T10:38:19.866Z,100035.03
2022-11-05T10:40:57.713Z,100025.56
2022-11-05T10:43:30.696Z,100029.25
2022-11-05T10:46:06.581Z,100037.72
2022-11-05T10:48:52.843Z,100036.91
2022-11-05T10:51:20.543Z,100035.25
2022-11-05T10:53:58.751Z,100035.50
2022-11-05T10:56:35.298Z,100031.97
2022-11-05T10:59:07.915Z,100040.81
2022-11-05T11:01:38.698Z,100042.28
2022-11-05T11:04:09.172Z,100038.09
2022-11-05T11:06:39.061Z,100027.63
2022-11-05T11:09:20.916Z,100024.81
2022-11-05T11:11:58.466Z,100033.91
2022-11-05T11:14:27.442Z,100032.59
2022-11-05T11:16:57.332Z,100024.78
2022-11-05T11:19:30.138Z,100041.63
2022-11-05T11:22:19.666Z,100027.81
2022-11-05T11:24:50.782Z,100024.03
2022-11-05T11:27:23.403Z,100029.84
2022-11-05T11:29:56.334Z,100023.25
2022-11-05T11:32:28.340Z,100023.06
2022-11-05T11:34:57.247Z,100027.72
2022-11-05T11:37:28.626Z,100020.38
2022-11-05T11:40:02.894Z,100022.63
2022-11-05T11:42:32.672Z,100024.38
2022-11-05T11:45:06.572Z,100028.03
2022-11-05T11:47:34.554Z,100029.00
2022-11-05T11:50:03.353Z,100029.44
2022-11-05T11:52:33.076Z,100028.75
2022-11-05T11:55:22.742Z,100027.72
2022-11-05T11:57:52.170Z,100031.53
2022-11-05T12:00:21.563Z,100022.66
2022-11-05T12:03:13.724Z,100026.84
2022-11-05T12:05:48.406Z,100016.34
2022-11-05T12:08:34.200Z,100022.56
2022-11-05T12:11:09.433Z,100020.22
2022-11-05T12:13:57.921Z,100028.44
2022-11-05T12:16:39.613Z,100022.22
2022-11-05T12:19:19.058Z,100027.91
2022-11-05T12:21:55.392Z,100032.22
2022-11-05T12:24:56.475Z,100031.13
2022-11-05T12:27:58.871Z,100028.38
2022-11-05T12:30:26.666Z,100032.59
2022-11-05T12:33:24.905Z,100035.88
2022-11-05T12:36:05.348Z,100019.53
2022-11-05T12:38:53.416Z,100026.38
2022-11-05T12:41:26.487Z,100018.09
2022-11-05T12:44:12.064Z,100018.34
2022-11-05T12:46:45.577Z,100010.81
2022-11-05T12:49:30.750Z,100015.19
2022-11-05T12:52:21.168Z,100012.38
2022-11-05T12:55:01.001Z,100012.22
2022-11-05T12:57:30.619Z,100008.78
2022-11-05T13:00:19.676Z,100014.53
2022-11-05T13:02:53.776Z,100011.91
2022-11-05T13:05:27.301Z,100005.44
2022-11-05T13:08:00.387Z,100004.56
2022-11-05T13:10:35.018Z,100008.84
2022-11-05T13:13:08.814Z,99988.38
2022-11-05T13:15:41.952Z,99987.69
2022-11-05T13:18:15.911Z,99993.53
2022-11-05T13:20:49.957Z,100000.47
2022-11-05T13:23:24.197Z,99990.53
2022-11-05T13:25:56.625Z,99991.13
2022-11-05T13:28:36.133Z,99999.38
2022-11-05T13:31:10.693Z,99985.72
2022-11-05T13:33:41.948Z,99988.78
2022-11-05T13:36:31.718Z,99984.72
2022-11-05T13:39:09.123Z,99989.25
2022-11-05T13:41:51.578Z,99979.69
2022-11-05T13:44:36.482Z,99977.59
2022-11-05T13:47:21.886Z,99973.91
2022-11-05T13:50:07.760Z,99976.59
2022-11-05T13:52:59.850Z,99973.56
2022-11-05T13:55:43.283Z,99967.72
2022-11-05T13:58:31.065Z,99962.50
2022-11-05T14:01:08.293Z,99964.59
2022-11-05T14:03:37.838Z,99964.25
2022-11-05T14:06:07.522Z,99970.50
2022-11-05T14:08:40.771Z,99971.91
2022-11-05T14:11:23.129Z,99969.50
2022-11-05T14:13:55.269Z,99967.94
2022-11-05T14:16:25.638Z,99965.28
2022-11-05T14:19:33.903Z,99963.53
2022-11-05T14:22:29.631Z,99955.63
2022-11-05T14:24:57.177Z,99966.22
2022-11-05T14:27:43.574Z,99952.66
2022-11-05T14:30:45.410Z,99963.19
2022-11-05T14:33:33.962Z,99963.19
2022-11-05T14:36:36.637Z,99972.84
2022-11-05T14:39:21.469Z,99962.75
2022-11-05T14:41:57.746Z,99953.03
2022-11-05T14:44:26.467Z,99961.81
2022-11-05T14:46:57.213Z,99951.78
2022-11-05T14:49:28.277Z,99946.44
2022-11-05T14:51:59.546Z,99946.44
2022-11-05T14:54:31.484Z,99931.22
2022-11-05T14:57:02.364Z,99932.13
2022-11-05T14:59:35.556Z,99930.41
2022-11-05T15:02:05.269Z,99930.16
2022-11-05T15:04:35.735Z,99933.66
2022-11-05T15:07:35.338Z,99936.34
2022-11-05T15:10:10.477Z,99940.59
2022-11-05T15:12:42.949Z,99936.44
2022-11-05T15:15:27.615Z,99950.47
2022-11-05T15:18:02.473Z,99944.38
2022-11-05T15:20:39.922Z,99943.06
2022-11-05T15:23:21.446Z,99938.50
2022-11-05T15:25:53.709Z,99934.69
2022-11-05T15:28:31.309Z,99936.63
2022-11-05T15:31:01.541Z,99938.16
2022-11-05T15:33:29.798Z,99943.75
2022-11-05T15:36:08.612Z,99946.00
2022-11-05T15:38:37.460Z,99943.00
2022-11-05T15:41:07.257Z,99942.66
2022-11-05T15:43:34.716Z,99942.72
2022-11-05T15:46:04.732Z,99946.19
2022-11-05T15:48:33.101Z,99942.81
2022-11-05T15:51:00.856Z,99945.94
2022-11-05T15:53:56.141Z,99935.72
2022-11-05T15:56:28.787Z,99932.09
2022-11-05T15:59:01.191Z,99944.44
2022-11-05T16:01:31.078Z,99944.69
2022-11-05T16:04:09.657Z,99944.50
2022-11-05T16:06:39.430Z,99938.56
2022-11-05T16:09:07.151Z,99934.47
2022-11-05T16:11:35.948Z,99938.31
2022-11-05T16:14:20.058Z,99945.50
2022-11-05T16:16:47.828Z,99946.94
2022-11-05T16:19:40.901Z,99949.34
2022-11-05T16:22:08.808Z,99950.06
2022-11-05T16:24:36.332Z,99946.78
2022-11-05T16:27:05.998Z,99940.59
2022-11-05T16:29:35.759Z,99945.00
2022-11-05T16:32:06.667Z,99947.13
2022-11-05T16:34:39.509Z,99939.25
2022-11-05T16:37:08.801Z,99935.13
2022-11-05T16:39:36.263Z,99938.41
2022-11-05T16:42:36.015Z,99941.44
2022-11-05T16:45:03.512Z,99942.53
2022-11-05T16:47:31.667Z,99938.91
2022-11-05T16:49:59.428Z,99939.00
2022-11-05T16:52:27.009Z,99940.16
2022-11-05T16:54:54.432Z,99942.59
2022-11-05T16:57:26.374Z,99947.53
2022-11-05T16:59:54.456Z,99949.59
2022-11-05T17:02:22.333Z,99953.19
2022-11-05T17:04:50.169Z,99951.16
2022-11-05T17:07:17.737Z,99952.78
2022-11-05T17:09:45.205Z,99943.97
2022-11-05T17:12:13.098Z,99949.59
2022-11-05T17:14:41.916Z,99940.94
2022-11-05T17:17:09.377Z,99937.78
2022-11-05T17:19:42.016Z,99940.22
2022-11-05T17:22:09.683Z,99930.03
2022-11-05T17:24:37.458Z,99936.19
2022-11-05T17:27:04.919Z,99925.06
2022-11-05T17:29:32.398Z,99933.41
2022-11-05T17:32:01.218Z,99936.19
2022-11-05T17:34:28.770Z,99937.03
2022-11-05T17:36:56.214Z,99935.84
2022-11-05T17:39:30.309Z,99938.25
2022-11-05T17:41:58.771Z,99945.06
2022-11-05T17:44:26.565Z,99937.63
2022-11-05T17:46:54.010Z,99930.75
2022-11-05T17:49:23.831Z,99937.47
2022-11-05T17:51:51.302Z,99936.00
2022-11-05T17:54:18.781Z,99934.00
2022-11-05T17:56:46.278Z,99937.84
2022-11-05T17:59:13.747Z,99941.69
2022-11-05T18:01:43.469Z,99949.72
2022-11-05T18:04:11.447Z,99943.75
2022-11-05T18:06:41.556Z,99947.09
2022-11-05T18:09:10.949Z,99941.44
2022-11-05T18:11:38.864Z,99947.28
2022-11-05T18:14:07.144Z,99951.03
2022-11-05T18:16:34.704Z,99949.78
2022-11-05T18:19:02.202Z,99963.66
2022-11-05T18:21:29.705Z,99960.94
2022-11-05T18:23:58.523Z,99954.56
2022-11-05T18:26:26.374Z,99955.22
2022-11-05T18:28:53.856Z,99956.16
2022-11-05T18:31:23.308Z,99956.22
2022-11-05T18:33:51.614Z,99958.09
2022-11-05T18:36:19.783Z,99959.53
2022-11-05T18:38:47.611Z,99951.34
2022-11-05T18:41:16.876Z,99952.78
2022-11-05T18:43:44.480Z,99955.84
2022-11-05T18:46:29.211Z,99951.44
2022-11-05T18:49:00.068Z,99951.03
2022-11-05T18:51:28.239Z,99946.41
2022-11-05T18:53:56.539Z,99952.44
2022-11-05T18:56:25.363Z,99950.25
2022-11-05T18:59:14.597Z,99940.75
2022-11-05T19:01:41.731Z,99935.41
2022-11-05T19:04:09.327Z,99947.59
2022-11-05T19:06:38.334Z,99936.25
2022-11-05T19:09:06.718Z,99940.34
2022-11-05T19:11:37.318Z,99943.50
2022-11-05T19:14:07.924Z,99949.06
2022-11-05T19:16:37.114Z,99947.44
2022-11-05T19:19:08.378Z,99943.41
2022-11-05T19:21:38.961Z,99940.47
2022-11-05T19:24:07.143Z,99944.97
2022-11-05T19:26:35.989Z,99950.13
2022-11-05T19:29:04.558Z,99946.91
2022-11-05T19:31:32.876Z,99951.63
2022-11-05T19:34:01.235Z,99956.75
2022-11-05T19:36:32.760Z,99961.09
2022-11-05T19:39:06.159Z,99956.78
2022-11-05T19:41:36.182Z,99958.63
2022-11-05T19:44:05.479Z,99962.63
2022-11-05T19:46:33.346Z,99961.59
2022-11-05T19:49:03.523Z,99959.00
2022-11-05T19:51:34.711Z,99961.97
2022-11-05T19:54:03.401Z,99962.06
2022-11-05T19:56:36.664Z,99958.34
2022-11-05T19:59:06.861Z,99943.19
2022-11-05T20:01:35.116Z,99945.94
2022-11-05T20:04:03.308Z,99948.19
2022-11-05T20:06:32.868Z,99951.34
2022-11-05T20:11:50.480Z,99941.09
2022-11-05T20:14:20.872Z,99931.38
2022-11-05T20:16:49.173Z,99938.66
2022-11-05T20:19:21.289Z,99940.59
2022-11-05T20:21:48.971Z,99946.94
2022-11-05T20:24:24.154Z,99951.59
2022-11-05T20:26:52.239Z,99947.63
2022-11-05T20:29:29.132Z,99958.38
2022-11-05T20:32:02.032Z,99957.06
2022-11-05T20:34:29.716Z,99961.25
2022-11-05T20:36:57.167Z,99953.16
2022-11-05T20:39:26.556Z,99953.91
2022-11-05T20:41:54.038Z,99947.94
2022-11-05T20:44:21.692Z,99941.28
2022-11-05T20:46:50.489Z,99948.72
2022-11-05T20:49:21.364Z,99948.22
2022-11-05T20:51:52.482Z,99929.69
2022-11-05T20:54:22.079Z,99927.94
2022-11-05T20:56:49.530Z,99927.06
2022-11-05T20:59:17.092Z,99929.25
2022-11-05T21:01:44.742Z,99936.22
2022-11-05T21:04:13.591Z,99937.44
2022-11-05T21:06:41.181Z,99940.75
2022-11-05T21:09:08.658Z,99961.72
2022-11-05T21:12:01.474Z,99959.75
2022-11-05T21:14:28.975Z,99967.25
2022-11-05T21:16:59.115Z,99978.34
2022-11-05T21:19:29.362Z,99978.78
2022-11-05T21:21:59.624Z,99971.94
2022-11-05T21:24:27.138Z,99971.06
2022-11-05T21:26:56.331Z,99966.75
2022-11-05T21:29:23.803Z,99962.44
2022-11-05T21:31:51.418Z,99959.97
2022-11-05T21:34:22.266Z,99965.72
2022-11-05T21:36:54.161Z,99961.28
2022-11-05T21:39:24.547Z,99962.22
2022-11-05T21:41:52.035Z,99964.59
2022-11-05T21:44:19.768Z,99945.16
2022-11-05T21:46:47.267Z,99944.84
2022-11-05T21:49:15.401Z,99929.34
2022-11-05T21:52:00.583Z,99918.94
2022-11-05T21:54:46.996Z,99905.94
2022-11-05T21:57:33.944Z,99913.19
2022-11-05T22:00:01.919Z,99917.97
2022-11-05T22:02:29.947Z,99924.38
2022-11-05T22:05:02.054Z,99916.84
2022-11-05T22:07:33.358Z,99906.09
2022-11-05T22:10:02.939Z,99910.78
2022-11-05T22:12:31.947Z,99918.41
2022-11-05T22:14:59.639Z,99922.88
2022-11-05T22:17:27.507Z,99917.41
2022-11-05T22:19:54.979Z,99909.56
2022-11-05T22:22:23.506Z,99909.38
2022-11-05T22:24:51.129Z,99908.72
2022-11-05T22:27:22.174Z,99902.47
2022-11-05T22:29:51.522Z,99900.00
2022-11-05T22:32:19.276Z,99894.88
2022-11-05T22:34:48.714Z,99894.25
2022-11-05T22:37:17.951Z,99886.69
2022-11-05T22:39:45.472Z,99885.59
2022-11-05T22:42:13.029Z,99890.19
2022-11-05T22:44:41.912Z,99879.84
2022-11-05T22:47:09.496Z,99878.41
2022-11-05T22:49:37.360Z,99885.72
2022-11-05T22:52:07.634Z,99883.94
2022-11-05T22:54:39.019Z,99883.34
2022-11-05T22:57:07.243Z,99878.25
2022-11-05T22:59:34.875Z,99866.59
2022-11-05T23:02:09.778Z,99874.47
2022-11-05T23:04:37.657Z,99871.81
2022-11-05T23:07:27.575Z,99865.16
2022-11-05T23:10:12.806Z,99862.19
2022-11-05T23:12:42.589Z,99864.41
2022-11-05T23:15:30.558Z,99867.91
2022-11-05T23:18:17.249Z,99874.84
2022-11-05T23:21:02.355Z,99864.13
2022-11-05T23:23:47.591Z,99859.66
2022-11-05T23:26:32.541Z,99856.66
2022-11-05T23:28:59.995Z,99852.28
2022-11-05T23:31:45.317Z,99861.19
2022-11-05T23:34:14.087Z,99859.72
2022-11-05T23:37:00.834Z,99848.72
2022-11-05T23:39:28.370Z,99842.38
2022-11-05T23:42:13.374Z,99836.25
2022-11-05T23:44:58.521Z,99839.19
2022-11-05T23:47:43.523Z,99839.16
2022-11-05T23:50:14.092Z,99845.34
2022-11-05T23:52:41.523Z,99844.22
2022-11-05T23:55:09.677Z,99851.41
2022-11-05T23:57:37.941Z,99850.00
